sensor_id;sensor_type;location;lat;lon;timestamp;P1;durP1;ratioP1;P2;durP2;ratioP2
41903;SDS011;27586;51.124;4.182;2023-03-23T00:01:22;3.15;;;2.85;;
41903;SDS011;27586;51.124;4.182;2023-03-23T00:03:50;4.15;;;2.70;;
41903;SDS011;27586;51.124;4.182;2023-03-23T00:06:17;3.55;;;2.95;;
41903;SDS011;27586;51.124;4.182;2023-03-23T00:08:44;3.33;;;2.90;;
41903;SDS011;27586;51.124;4.182;2023-03-23T00:11:12;3.13;;;2.70;;
41903;SDS011;27586;51.124;4.182;2023-03-23T00:13:40;3.03;;;2.70;;
41903;SDS011;27586;51.124;4.182;2023-03-23T00:16:11;4.13;;;3.10;;
41903;SDS011;27586;51.124;4.182;2023-03-23T00:18:44;3.50;;;2.95;;
41903;SDS011;27586;51.124;4.182;2023-03-23T00:21:17;3.78;;;3.00;;
41903;SDS011;27586;51.124;4.182;2023-03-23T00:23:43;3.75;;;3.45;;
41903;SDS011;27586;51.124;4.182;2023-03-23T00:26:09;3.83;;;3.20;;
41903;SDS011;27586;51.124;4.182;2023-03-23T00:28:36;5.80;;;3.53;;
41903;SDS011;27586;51.124;4.182;2023-03-23T00:31:04;3.80;;;3.50;;
41903;SDS011;27586;51.124;4.182;2023-03-23T00:33:32;4.68;;;3.58;;
41903;SDS011;27586;51.124;4.182;2023-03-23T00:36:03;4.50;;;3.85;;
41903;SDS011;27586;51.124;4.182;2023-03-23T00:38:30;4.50;;;3.90;;
41903;SDS011;27586;51.124;4.182;2023-03-23T00:40:56;3.70;;;3.35;;
41903;SDS011;27586;51.124;4.182;2023-03-23T00:43:22;5.43;;;3.50;;
41903;SDS011;27586;51.124;4.182;2023-03-23T00:45:54;4.85;;;3.95;;
41903;SDS011;27586;51.124;4.182;2023-03-23T00:48:24;4.38;;;3.33;;
41903;SDS011;27586;51.124;4.182;2023-03-23T00:50:50;5.03;;;3.75;;
41903;SDS011;27586;51.124;4.182;2023-03-23T00:53:17;3.97;;;3.58;;
41903;SDS011;27586;51.124;4.182;2023-03-23T00:55:44;4.97;;;3.85;;
41903;SDS011;27586;51.124;4.182;2023-03-23T00:58:11;4.10;;;3.15;;
41903;SDS011;27586;51.124;4.182;2023-03-23T01:00:38;3.70;;;3.40;;
41903;SDS011;27586;51.124;4.182;2023-03-23T01:03:05;3.78;;;3.03;;
41903;SDS011;27586;51.124;4.182;2023-03-23T01:05:35;5.45;;;3.78;;
41903;SDS011;27586;51.124;4.182;2023-03-23T01:08:02;4.60;;;3.35;;
41903;SDS011;27586;51.124;4.182;2023-03-23T01:10:29;5.22;;;3.65;;
41903;SDS011;27586;51.124;4.182;2023-03-23T01:12:57;3.33;;;3.00;;
41903;SDS011;27586;51.124;4.182;2023-03-23T01:15:25;4.15;;;2.88;;
41903;SDS011;27586;51.124;4.182;2023-03-23T01:17:51;3.60;;;3.22;;
41903;SDS011;27586;51.124;4.182;2023-03-23T01:20:17;3.28;;;3.00;;
41903;SDS011;27586;51.124;4.182;2023-03-23T01:22:42;3.17;;;2.88;;
41903;SDS011;27586;51.124;4.182;2023-03-23T01:25:10;4.60;;;3.05;;
41903;SDS011;27586;51.124;4.182;2023-03-23T01:27:37;4.50;;;3.00;;
41903;SDS011;27586;51.124;4.182;2023-03-23T01:30:03;4.88;;;2.95;;
41903;SDS011;27586;51.124;4.182;2023-03-23T01:32:30;4.35;;;2.80;;
41903;SDS011;27586;51.124;4.182;2023-03-23T01:34:57;3.47;;;2.85;;
41903;SDS011;27586;51.124;4.182;2023-03-23T01:37:23;3.78;;;2.80;;
41903;SDS011;27586;51.124;4.182;2023-03-23T01:39:52;3.22;;;2.58;;
41903;SDS011;27586;51.124;4.182;2023-03-23T01:42:21;3.28;;;2.47;;
41903;SDS011;27586;51.124;4.182;2023-03-23T01:47:13;3.30;;;2.95;;
41903;SDS011;27586;51.124;4.182;2023-03-23T01:49:41;3.30;;;2.75;;
41903;SDS011;27586;51.124;4.182;2023-03-23T01:52:16;3.65;;;2.83;;
41903;SDS011;27586;51.124;4.182;2023-03-23T01:54:54;3.00;;;2.60;;
41903;SDS011;27586;51.124;4.182;2023-03-23T01:57:21;3.33;;;2.72;;
41903;SDS011;27586;51.124;4.182;2023-03-23T01:59:52;3.13;;;2.63;;
41903;SDS011;27586;51.124;4.182;2023-03-23T02:02:21;3.70;;;2.92;;
41903;SDS011;27586;51.124;4.182;2023-03-23T02:04:49;4.55;;;2.63;;
41903;SDS011;27586;51.124;4.182;2023-03-23T02:07:17;3.35;;;2.88;;
41903;SDS011;27586;51.124;4.182;2023-03-23T02:09:45;3.08;;;2.60;;
41903;SDS011;27586;51.124;4.182;2023-03-23T02:12:10;5.35;;;2.30;;
41903;SDS011;27586;51.124;4.182;2023-03-23T02:14:37;2.78;;;2.15;;
41903;SDS011;27586;51.124;4.182;2023-03-23T02:17:10;2.33;;;1.98;;
41903;SDS011;27586;51.124;4.182;2023-03-23T02:36:30;2.30;;;1.83;;
41903;SDS011;27586;51.124;4.182;2023-03-23T02:39:04;2.45;;;1.60;;
41903;SDS011;27586;51.124;4.182;2023-03-23T02:41:39;4.38;;;2.03;;
41903;SDS011;27586;51.124;4.182;2023-03-23T02:44:10;4.43;;;1.60;;
41903;SDS011;27586;51.124;4.182;2023-03-23T02:46:37;2.75;;;1.55;;
41903;SDS011;27586;51.124;4.182;2023-03-23T02:49:04;5.28;;;1.70;;
41903;SDS011;27586;51.124;4.182;2023-03-23T02:51:33;4.85;;;1.85;;
41903;SDS011;27586;51.124;4.182;2023-03-23T02:54:00;4.07;;;2.05;;
41903;SDS011;27586;51.124;4.182;2023-03-23T02:56:28;5.53;;;2.00;;
41903;SDS011;27586;51.124;4.182;2023-03-23T02:58:55;6.35;;;2.00;;
41903;SDS011;27586;51.124;4.182;2023-03-23T03:04:01;3.72;;;1.85;;
41903;SDS011;27586;51.124;4.182;2023-03-23T03:06:44;3.90;;;1.90;;
41903;SDS011;27586;51.124;4.182;2023-03-23T03:12:41;4.43;;;2.15;;
41903;SDS011;27586;51.124;4.182;2023-03-23T03:17:44;3.80;;;1.83;;
41903;SDS011;27586;51.124;4.182;2023-03-23T03:20:18;4.57;;;1.73;;
41903;SDS011;27586;51.124;4.182;2023-03-23T03:22:46;4.95;;;2.03;;
41903;SDS011;27586;51.124;4.182;2023-03-23T03:25:13;4.70;;;1.88;;
41903;SDS011;27586;51.124;4.182;2023-03-23T03:27:43;4.68;;;2.03;;
41903;SDS011;27586;51.124;4.182;2023-03-23T03:30:11;3.20;;;1.77;;
41903;SDS011;27586;51.124;4.182;2023-03-23T03:32:46;4.55;;;1.92;;
41903;SDS011;27586;51.124;4.182;2023-03-23T03:35:16;7.10;;;1.85;;
41903;SDS011;27586;51.124;4.182;2023-03-23T03:37:42;4.47;;;1.70;;
41903;SDS011;27586;51.124;4.182;2023-03-23T03:40:10;6.38;;;2.05;;
41903;SDS011;27586;51.124;4.182;2023-03-23T03:42:39;5.72;;;1.92;;
41903;SDS011;27586;51.124;4.182;2023-03-23T03:45:10;3.13;;;1.55;;
41903;SDS011;27586;51.124;4.182;2023-03-23T03:47:38;3.67;;;1.73;;
41903;SDS011;27586;51.124;4.182;2023-03-23T03:50:04;5.15;;;1.58;;
41903;SDS011;27586;51.124;4.182;2023-03-23T03:52:30;4.80;;;1.75;;
41903;SDS011;27586;51.124;4.182;2023-03-23T03:54:57;5.28;;;2.00;;
41903;SDS011;27586;51.124;4.182;2023-03-23T03:57:23;5.35;;;2.13;;
41903;SDS011;27586;51.124;4.182;2023-03-23T03:59:49;4.00;;;1.60;;
41903;SDS011;27586;51.124;4.182;2023-03-23T04:02:15;4.47;;;1.73;;
41903;SDS011;27586;51.124;4.182;2023-03-23T04:04:45;5.00;;;1.88;;
41903;SDS011;27586;51.124;4.182;2023-03-23T04:07:12;3.88;;;1.98;;
41903;SDS011;27586;51.124;4.182;2023-03-23T04:09:39;4.18;;;1.92;;
41903;SDS011;27586;51.124;4.182;2023-03-23T04:12:05;4.47;;;1.88;;
41903;SDS011;27586;51.124;4.182;2023-03-23T04:14:31;4.05;;;1.90;;
41903;SDS011;27586;51.124;4.182;2023-03-23T04:16:57;4.60;;;1.70;;
41903;SDS011;27586;51.124;4.182;2023-03-23T04:19:24;5.07;;;1.95;;
41903;SDS011;27586;51.124;4.182;2023-03-23T04:21:50;7.22;;;2.40;;
41903;SDS011;27586;51.124;4.182;2023-03-23T04:24:16;4.32;;;1.75;;
41903;SDS011;27586;51.124;4.182;2023-03-23T04:26:46;3.95;;;1.70;;
41903;SDS011;27586;51.124;4.182;2023-03-23T04:29:11;4.82;;;1.70;;
41903;SDS011;27586;51.124;4.182;2023-03-23T04:31:38;4.03;;;1.90;;
41903;SDS011;27586;51.124;4.182;2023-03-23T04:34:05;6.45;;;2.00;;
41903;SDS011;27586;51.124;4.182;2023-03-23T04:36:31;6.40;;;2.00;;
41903;SDS011;27586;51.124;4.182;2023-03-23T04:38:59;6.13;;;1.90;;
41903;SDS011;27586;51.124;4.182;2023-03-23T04:41:25;9.18;;;2.33;;
41903;SDS011;27586;51.124;4.182;2023-03-23T04:43:51;6.43;;;2.25;;
41903;SDS011;27586;51.124;4.182;2023-03-23T04:46:19;5.50;;;2.10;;
41903;SDS011;27586;51.124;4.182;2023-03-23T04:48:46;7.05;;;2.08;;
41903;SDS011;27586;51.124;4.182;2023-03-23T04:51:12;7.35;;;2.30;;
41903;SDS011;27586;51.124;4.182;2023-03-23T04:53:39;7.10;;;2.00;;
41903;SDS011;27586;51.124;4.182;2023-03-23T04:56:06;5.47;;;1.88;;
41903;SDS011;27586;51.124;4.182;2023-03-23T04:58:32;7.32;;;2.10;;
41903;SDS011;27586;51.124;4.182;2023-03-23T05:01:01;7.10;;;1.95;;
41903;SDS011;27586;51.124;4.182;2023-03-23T05:03:29;5.05;;;2.28;;
41903;SDS011;27586;51.124;4.182;2023-03-23T05:05:54;5.15;;;2.08;;
41903;SDS011;27586;51.124;4.182;2023-03-23T05:08:21;6.00;;;2.00;;
41903;SDS011;27586;51.124;4.182;2023-03-23T05:10:50;6.20;;;2.30;;
41903;SDS011;27586;51.124;4.182;2023-03-23T05:13:20;7.38;;;2.03;;
41903;SDS011;27586;51.124;4.182;2023-03-23T05:15:46;8.05;;;2.22;;
41903;SDS011;27586;51.124;4.182;2023-03-23T05:18:13;4.47;;;1.92;;
41903;SDS011;27586;51.124;4.182;2023-03-23T05:20:39;6.32;;;2.10;;
41903;SDS011;27586;51.124;4.182;2023-03-23T05:23:06;8.07;;;2.17;;
41903;SDS011;27586;51.124;4.182;2023-03-23T05:25:33;6.90;;;2.63;;
41903;SDS011;27586;51.124;4.182;2023-03-23T05:28:05;6.47;;;2.70;;
41903;SDS011;27586;51.124;4.182;2023-03-23T05:30:32;5.55;;;2.25;;
41903;SDS011;27586;51.124;4.182;2023-03-23T05:32:58;6.78;;;2.25;;
41903;SDS011;27586;51.124;4.182;2023-03-23T05:35:24;5.63;;;2.28;;
41903;SDS011;27586;51.124;4.182;2023-03-23T05:37:50;5.15;;;2.22;;
41903;SDS011;27586;51.124;4.182;2023-03-23T05:40:18;12.82;;;3.05;;
41903;SDS011;27586;51.124;4.182;2023-03-23T05:42:45;21.05;;;3.00;;
41903;SDS011;27586;51.124;4.182;2023-03-23T05:45:12;8.02;;;2.38;;
41903;SDS011;27586;51.124;4.182;2023-03-23T05:47:39;22.98;;;3.55;;
41903;SDS011;27586;51.124;4.182;2023-03-23T05:50:06;6.07;;;2.42;;
41903;SDS011;27586;51.124;4.182;2023-03-23T05:52:34;5.65;;;2.80;;
41903;SDS011;27586;51.124;4.182;2023-03-23T05:55:03;5.80;;;2.70;;
41903;SDS011;27586;51.124;4.182;2023-03-23T05:57:30;8.90;;;2.92;;
41903;SDS011;27586;51.124;4.182;2023-03-23T05:59:56;6.88;;;2.90;;
41903;SDS011;27586;51.124;4.182;2023-03-23T06:02:23;8.73;;;2.90;;
41903;SDS011;27586;51.124;4.182;2023-03-23T06:04:50;6.20;;;3.03;;
41903;SDS011;27586;51.124;4.182;2023-03-23T06:07:22;9.00;;;2.95;;
41903;SDS011;27586;51.124;4.182;2023-03-23T06:09:51;6.95;;;2.72;;
41903;SDS011;27586;51.124;4.182;2023-03-23T06:12:17;10.93;;;3.03;;
41903;SDS011;27586;51.124;4.182;2023-03-23T06:14:46;6.05;;;2.65;;
41903;SDS011;27586;51.124;4.182;2023-03-23T06:17:14;7.25;;;2.95;;
41903;SDS011;27586;51.124;4.182;2023-03-23T06:19:41;13.48;;;3.90;;
41903;SDS011;27586;51.124;4.182;2023-03-23T06:22:07;6.60;;;2.30;;
41903;SDS011;27586;51.124;4.182;2023-03-23T06:24:32;4.90;;;1.60;;
41903;SDS011;27586;51.124;4.182;2023-03-23T06:26:59;2.95;;;1.42;;
41903;SDS011;27586;51.124;4.182;2023-03-23T06:29:25;3.33;;;1.50;;
41903;SDS011;27586;51.124;4.182;2023-03-23T06:31:52;3.50;;;1.58;;
41903;SDS011;27586;51.124;4.182;2023-03-23T06:34:20;4.65;;;1.40;;
41903;SDS011;27586;51.124;4.182;2023-03-23T06:36:46;4.68;;;1.63;;
41903;SDS011;27586;51.124;4.182;2023-03-23T06:39:12;3.42;;;1.40;;
41903;SDS011;27586;51.124;4.182;2023-03-23T06:41:38;7.35;;;1.88;;
41903;SDS011;27586;51.124;4.182;2023-03-23T06:44:05;5.43;;;1.65;;
41903;SDS011;27586;51.124;4.182;2023-03-23T06:46:31;5.97;;;1.70;;
41903;SDS011;27586;51.124;4.182;2023-03-23T06:48:57;5.45;;;1.70;;
41903;SDS011;27586;51.124;4.182;2023-03-23T06:51:23;5.30;;;1.75;;
41903;SDS011;27586;51.124;4.182;2023-03-23T06:53:49;5.35;;;1.90;;
41903;SDS011;27586;51.124;4.182;2023-03-23T06:56:15;8.88;;;1.92;;
41903;SDS011;27586;51.124;4.182;2023-03-23T06:58:41;6.18;;;1.90;;
41903;SDS011;27586;51.124;4.182;2023-03-23T07:01:07;5.57;;;1.60;;
41903;SDS011;27586;51.124;4.182;2023-03-23T07:03:34;4.75;;;1.73;;
41903;SDS011;27586;51.124;4.182;2023-03-23T07:06:00;5.65;;;1.65;;
41903;SDS011;27586;51.124;4.182;2023-03-23T07:08:26;4.40;;;1.50;;
41903;SDS011;27586;51.124;4.182;2023-03-23T07:10:52;3.17;;;1.60;;
41903;SDS011;27586;51.124;4.182;2023-03-23T07:13:19;2.53;;;1.38;;
41903;SDS011;27586;51.124;4.182;2023-03-23T07:15:45;5.10;;;1.55;;
41903;SDS011;27586;51.124;4.182;2023-03-23T07:18:11;3.25;;;1.50;;
41903;SDS011;27586;51.124;4.182;2023-03-23T07:20:37;3.13;;;1.42;;
41903;SDS011;27586;51.124;4.182;2023-03-23T07:23:03;5.40;;;2.20;;
41903;SDS011;27586;51.124;4.182;2023-03-23T07:25:30;3.83;;;1.92;;
41903;SDS011;27586;51.124;4.182;2023-03-23T07:27:57;3.42;;;1.70;;
41903;SDS011;27586;51.124;4.182;2023-03-23T07:30:27;2.83;;;1.42;;
41903;SDS011;27586;51.124;4.182;2023-03-23T07:32:55;4.10;;;1.45;;
41903;SDS011;27586;51.124;4.182;2023-03-23T07:35:21;2.97;;;1.08;;
41903;SDS011;27586;51.124;4.182;2023-03-23T07:37:47;2.13;;;1.10;;
41903;SDS011;27586;51.124;4.182;2023-03-23T07:40:14;3.33;;;1.25;;
41903;SDS011;27586;51.124;4.182;2023-03-23T07:42:43;3.88;;;1.38;;
41903;SDS011;27586;51.124;4.182;2023-03-23T07:45:11;3.97;;;1.52;;
41903;SDS011;27586;51.124;4.182;2023-03-23T07:47:38;3.38;;;1.35;;
41903;SDS011;27586;51.124;4.182;2023-03-23T07:50:04;3.15;;;1.38;;
41903;SDS011;27586;51.124;4.182;2023-03-23T07:52:31;3.78;;;1.55;;
41903;SDS011;27586;51.124;4.182;2023-03-23T07:54:58;2.97;;;1.55;;
41903;SDS011;27586;51.124;4.182;2023-03-23T07:57:24;4.15;;;1.60;;
41903;SDS011;27586;51.124;4.182;2023-03-23T07:59:50;4.47;;;1.73;;
41903;SDS011;27586;51.124;4.182;2023-03-23T08:02:15;4.55;;;1.75;;
41903;SDS011;27586;51.124;4.182;2023-03-23T08:04:41;3.50;;;1.83;;
41903;SDS011;27586;51.124;4.182;2023-03-23T08:07:07;5.10;;;1.55;;
41903;SDS011;27586;51.124;4.182;2023-03-23T08:09:33;4.25;;;1.85;;
41903;SDS011;27586;51.124;4.182;2023-03-23T08:11:59;5.28;;;1.77;;
41903;SDS011;27586;51.124;4.182;2023-03-23T08:14:24;7.10;;;1.90;;
41903;SDS011;27586;51.124;4.182;2023-03-23T08:16:52;6.78;;;2.38;;
41903;SDS011;27586;51.124;4.182;2023-03-23T08:19:20;5.25;;;2.00;;
41903;SDS011;27586;51.124;4.182;2023-03-23T08:21:46;5.70;;;1.65;;
41903;SDS011;27586;51.124;4.182;2023-03-23T08:24:12;6.07;;;1.80;;
41903;SDS011;27586;51.124;4.182;2023-03-23T08:26:39;4.00;;;1.50;;
41903;SDS011;27586;51.124;4.182;2023-03-23T08:29:05;4.97;;;1.50;;
41903;SDS011;27586;51.124;4.182;2023-03-23T08:31:31;3.28;;;1.60;;
41903;SDS011;27586;51.124;4.182;2023-03-23T08:33:59;4.75;;;1.80;;
41903;SDS011;27586;51.124;4.182;2023-03-23T08:36:25;4.18;;;2.10;;
41903;SDS011;27586;51.124;4.182;2023-03-23T08:38:52;3.97;;;1.65;;
41903;SDS011;27586;51.124;4.182;2023-03-23T08:41:18;4.95;;;1.60;;
41903;SDS011;27586;51.124;4.182;2023-03-23T08:43:45;4.38;;;1.65;;
41903;SDS011;27586;51.124;4.182;2023-03-23T08:46:11;3.80;;;1.60;;
41903;SDS011;27586;51.124;4.182;2023-03-23T08:48:37;4.25;;;1.92;;
41903;SDS011;27586;51.124;4.182;2023-03-23T08:51:04;4.70;;;2.25;;
41903;SDS011;27586;51.124;4.182;2023-03-23T08:53:30;4.93;;;2.05;;
41903;SDS011;27586;51.124;4.182;2023-03-23T08:56:02;7.30;;;1.98;;
41903;SDS011;27586;51.124;4.182;2023-03-23T08:58:32;4.47;;;2.10;;
41903;SDS011;27586;51.124;4.182;2023-03-23T09:00:59;5.70;;;2.05;;
41903;SDS011;27586;51.124;4.182;2023-03-23T09:03:25;4.93;;;1.48;;
41903;SDS011;27586;51.124;4.182;2023-03-23T09:05:51;4.70;;;1.88;;
41903;SDS011;27586;51.124;4.182;2023-03-23T09:08:18;5.40;;;2.10;;
41903;SDS011;27586;51.124;4.182;2023-03-23T09:10:44;5.22;;;1.98;;
41903;SDS011;27586;51.124;4.182;2023-03-23T09:13:09;5.65;;;1.75;;
41903;SDS011;27586;51.124;4.182;2023-03-23T09:15:35;6.28;;;2.45;;
41903;SDS011;27586;51.124;4.182;2023-03-23T09:18:01;5.30;;;1.63;;
41903;SDS011;27586;51.124;4.182;2023-03-23T09:20:28;7.05;;;2.33;;
41903;SDS011;27586;51.124;4.182;2023-03-23T09:22:55;6.35;;;2.10;;
41903;SDS011;27586;51.124;4.182;2023-03-23T09:25:23;7.00;;;2.60;;
41903;SDS011;27586;51.124;4.182;2023-03-23T09:27:52;4.60;;;1.90;;
41903;SDS011;27586;51.124;4.182;2023-03-23T09:30:21;8.10;;;2.10;;
41903;SDS011;27586;51.124;4.182;2023-03-23T09:32:51;4.40;;;1.73;;
41903;SDS011;27586;51.124;4.182;2023-03-23T09:35:18;4.97;;;1.88;;
41903;SDS011;27586;51.124;4.182;2023-03-23T09:37:46;9.02;;;2.08;;
41903;SDS011;27586;51.124;4.182;2023-03-23T09:40:16;4.85;;;1.58;;
41903;SDS011;27586;51.124;4.182;2023-03-23T09:42:56;5.35;;;1.95;;
41903;SDS011;27586;51.124;4.182;2023-03-23T09:46:00;7.32;;;2.20;;
41903;SDS011;27586;51.124;4.182;2023-03-23T09:53:48;4.75;;;1.70;;
41903;SDS011;27586;51.124;4.182;2023-03-23T09:56:20;2.22;;;1.33;;
41903;SDS011;27586;51.124;4.182;2023-03-23T10:06:52;4.18;;;1.48;;
41903;SDS011;27586;51.124;4.182;2023-03-23T10:09:23;2.67;;;1.48;;
41903;SDS011;27586;51.124;4.182;2023-03-23T10:11:58;5.80;;;1.80;;
41903;SDS011;27586;51.124;4.182;2023-03-23T10:14:40;3.75;;;1.75;;
41903;SDS011;27586;51.124;4.182;2023-03-23T10:17:14;4.53;;;2.10;;
41903;SDS011;27586;51.124;4.182;2023-03-23T10:22:36;4.40;;;1.98;;
41903;SDS011;27586;51.124;4.182;2023-03-23T10:30:30;7.18;;;2.50;;
41903;SDS011;27586;51.124;4.182;2023-03-23T10:33:03;6.28;;;2.40;;
41903;SDS011;27586;51.124;4.182;2023-03-23T10:35:37;4.38;;;2.25;;
41903;SDS011;27586;51.124;4.182;2023-03-23T10:38:19;5.40;;;2.10;;
41903;SDS011;27586;51.124;4.182;2023-03-23T10:41:05;7.18;;;2.90;;
41903;SDS011;27586;51.124;4.182;2023-03-23T10:43:36;7.63;;;2.25;;
41903;SDS011;27586;51.124;4.182;2023-03-23T10:46:09;8.80;;;2.67;;
41903;SDS011;27586;51.124;4.182;2023-03-23T10:48:45;7.93;;;2.50;;
41903;SDS011;27586;51.124;4.182;2023-03-23T10:51:14;6.55;;;2.38;;
41903;SDS011;27586;51.124;4.182;2023-03-23T10:53:45;7.32;;;2.90;;
41903;SDS011;27586;51.124;4.182;2023-03-23T10:59:20;5.25;;;2.33;;
41903;SDS011;27586;51.124;4.182;2023-03-23T11:01:52;6.05;;;2.55;;
41903;SDS011;27586;51.124;4.182;2023-03-23T11:04:20;5.45;;;2.42;;
41903;SDS011;27586;51.124;4.182;2023-03-23T11:06:49;4.97;;;2.13;;
41903;SDS011;27586;51.124;4.182;2023-03-23T11:09:21;7.65;;;2.80;;
41903;SDS011;27586;51.124;4.182;2023-03-23T11:11:58;7.63;;;2.38;;
41903;SDS011;27586;51.124;4.182;2023-03-23T11:14:28;4.72;;;2.80;;
41903;SDS011;27586;51.124;4.182;2023-03-23T11:16:56;6.57;;;2.50;;
41903;SDS011;27586;51.124;4.182;2023-03-23T11:19:33;6.75;;;2.40;;
41903;SDS011;27586;51.124;4.182;2023-03-23T11:24:33;5.75;;;2.47;;
41903;SDS011;27586;51.124;4.182;2023-03-23T11:27:01;4.75;;;1.98;;
41903;SDS011;27586;51.124;4.182;2023-03-23T11:29:32;7.18;;;2.47;;
41903;SDS011;27586;51.124;4.182;2023-03-23T11:34:29;5.60;;;2.05;;
41903;SDS011;27586;51.124;4.182;2023-03-23T11:37:01;7.65;;;2.22;;
41903;SDS011;27586;51.124;4.182;2023-03-23T11:39:31;7.00;;;2.63;;
41903;SDS011;27586;51.124;4.182;2023-03-23T11:42:20;9.45;;;2.92;;
41903;SDS011;27586;51.124;4.182;2023-03-23T11:44:51;8.45;;;2.97;;
41903;SDS011;27586;51.124;4.182;2023-03-23T11:47:38;5.75;;;2.47;;
41903;SDS011;27586;51.124;4.182;2023-03-23T11:50:10;8.70;;;2.60;;
41903;SDS011;27586;51.124;4.182;2023-03-23T11:53:00;5.28;;;2.20;;
41903;SDS011;27586;51.124;4.182;2023-03-23T11:58:17;7.88;;;2.75;;
41903;SDS011;27586;51.124;4.182;2023-03-23T12:00:55;8.77;;;2.50;;
41903;SDS011;27586;51.124;4.182;2023-03-23T12:04:06;6.88;;;2.67;;
41903;SDS011;27586;51.124;4.182;2023-03-23T12:11:35;6.25;;;2.60;;
41903;SDS011;27586;51.124;4.182;2023-03-23T12:14:37;7.18;;;2.33;;
41903;SDS011;27586;51.124;4.182;2023-03-23T12:22:37;9.27;;;2.97;;
41903;SDS011;27586;51.124;4.182;2023-03-23T12:28:38;9.07;;;3.00;;
41903;SDS011;27586;51.124;4.182;2023-03-23T12:45:11;7.28;;;2.72;;
41903;SDS011;27586;51.124;4.182;2023-03-23T12:47:40;6.50;;;2.53;;
41903;SDS011;27586;51.124;4.182;2023-03-23T12:50:23;6.25;;;2.72;;
41903;SDS011;27586;51.124;4.182;2023-03-23T12:55:50;8.75;;;2.60;;
41903;SDS011;27586;51.124;4.182;2023-03-23T12:58:37;9.63;;;2.60;;
41903;SDS011;27586;51.124;4.182;2023-03-23T13:01:20;5.45;;;2.42;;
41903;SDS011;27586;51.124;4.182;2023-03-23T13:03:57;7.50;;;2.30;;
41903;SDS011;27586;51.124;4.182;2023-03-23T13:06:43;7.05;;;2.47;;
41903;SDS011;27586;51.124;4.182;2023-03-23T13:11:56;10.07;;;2.42;;
41903;SDS011;27586;51.124;4.182;2023-03-23T13:23:08;7.60;;;2.55;;
41903;SDS011;27586;51.124;4.182;2023-03-23T13:28:27;7.53;;;2.53;;
41903;SDS011;27586;51.124;4.182;2023-03-23T13:31:00;7.60;;;2.33;;
41903;SDS011;27586;51.124;4.182;2023-03-23T13:33:29;7.82;;;2.90;;
41903;SDS011;27586;51.124;4.182;2023-03-23T13:36:01;9.00;;;2.95;;
41903;SDS011;27586;51.124;4.182;2023-03-23T13:38:32;7.10;;;2.80;;
41903;SDS011;27586;51.124;4.182;2023-03-23T13:40:58;6.95;;;2.78;;
41903;SDS011;27586;51.124;4.182;2023-03-23T13:43:36;5.47;;;2.20;;
41903;SDS011;27586;51.124;4.182;2023-03-23T13:46:07;7.88;;;3.20;;
41903;SDS011;27586;51.124;4.182;2023-03-23T13:48:42;8.77;;;3.05;;
41903;SDS011;27586;51.124;4.182;2023-03-23T14:01:57;7.47;;;2.78;;
41903;SDS011;27586;51.124;4.182;2023-03-23T14:04:56;6.55;;;2.35;;
41903;SDS011;27586;51.124;4.182;2023-03-23T14:07:22;6.53;;;2.20;;
41903;SDS011;27586;51.124;4.182;2023-03-23T14:09:50;8.45;;;2.40;;
41903;SDS011;27586;51.124;4.182;2023-03-23T14:12:20;6.70;;;2.00;;
41903;SDS011;27586;51.124;4.182;2023-03-23T14:14:51;5.00;;;2.20;;
41903;SDS011;27586;51.124;4.182;2023-03-23T14:17:29;6.57;;;2.13;;
41903;SDS011;27586;51.124;4.182;2023-03-23T14:19:58;3.67;;;2.00;;
41903;SDS011;27586;51.124;4.182;2023-03-23T14:22:26;5.57;;;2.03;;
41903;SDS011;27586;51.124;4.182;2023-03-23T14:25:00;5.38;;;2.30;;
41903;SDS011;27586;51.124;4.182;2023-03-23T14:27:40;6.00;;;2.53;;
41903;SDS011;27586;51.124;4.182;2023-03-23T14:30:16;7.15;;;2.40;;
41903;SDS011;27586;51.124;4.182;2023-03-23T14:32:45;6.85;;;2.47;;
41903;SDS011;27586;51.124;4.182;2023-03-23T14:35:22;7.13;;;2.83;;
41903;SDS011;27586;51.124;4.182;2023-03-23T14:37:54;4.97;;;2.60;;
41903;SDS011;27586;51.124;4.182;2023-03-23T14:40:21;6.18;;;2.45;;
41903;SDS011;27586;51.124;4.182;2023-03-23T14:42:47;9.23;;;3.17;;
41903;SDS011;27586;51.124;4.182;2023-03-23T14:45:16;10.13;;;2.88;;
41903;SDS011;27586;51.124;4.182;2023-03-23T14:47:44;5.60;;;2.92;;
41903;SDS011;27586;51.124;4.182;2023-03-23T14:52:48;7.50;;;3.10;;
41903;SDS011;27586;51.124;4.182;2023-03-23T14:55:20;11.02;;;3.10;;
41903;SDS011;27586;51.124;4.182;2023-03-23T14:57:47;6.85;;;3.13;;
41903;SDS011;27586;51.124;4.182;2023-03-23T15:02:53;7.57;;;3.42;;
41903;SDS011;27586;51.124;4.182;2023-03-23T15:05:28;8.23;;;3.10;;
41903;SDS011;27586;51.124;4.182;2023-03-23T15:08:04;8.30;;;3.30;;
41903;SDS011;27586;51.124;4.182;2023-03-23T15:10:35;7.13;;;2.63;;
41903;SDS011;27586;51.124;4.182;2023-03-23T15:13:01;7.07;;;2.63;;
41903;SDS011;27586;51.124;4.182;2023-03-23T15:15:28;6.03;;;2.70;;
41903;SDS011;27586;51.124;4.182;2023-03-23T15:17:59;7.82;;;2.53;;
41903;SDS011;27586;51.124;4.182;2023-03-23T15:20:28;5.78;;;2.75;;
41903;SDS011;27586;51.124;4.182;2023-03-23T15:22:55;9.27;;;2.92;;
41903;SDS011;27586;51.124;4.182;2023-03-23T15:25:31;7.28;;;2.70;;
41903;SDS011;27586;51.124;4.182;2023-03-23T15:28:16;7.85;;;2.80;;
41903;SDS011;27586;51.124;4.182;2023-03-23T15:30:51;7.72;;;2.92;;
41903;SDS011;27586;51.124;4.182;2023-03-23T15:33:19;7.68;;;3.03;;
41903;SDS011;27586;51.124;4.182;2023-03-23T15:35:53;9.63;;;3.45;;
41903;SDS011;27586;51.124;4.182;2023-03-23T15:38:29;8.00;;;2.95;;
41903;SDS011;27586;51.124;4.182;2023-03-23T15:40:57;9.13;;;3.03;;
41903;SDS011;27586;51.124;4.182;2023-03-23T15:43:26;6.85;;;3.05;;
41903;SDS011;27586;51.124;4.182;2023-03-23T15:48:45;7.43;;;3.13;;
41903;SDS011;27586;51.124;4.182;2023-03-23T15:51:12;11.27;;;3.25;;
41903;SDS011;27586;51.124;4.182;2023-03-23T15:53:39;12.90;;;3.60;;
41903;SDS011;27586;51.124;4.182;2023-03-23T15:56:07;10.73;;;3.50;;
41903;SDS011;27586;51.124;4.182;2023-03-23T15:58:35;9.15;;;3.47;;
41903;SDS011;27586;51.124;4.182;2023-03-23T16:01:04;8.90;;;3.15;;
41903;SDS011;27586;51.124;4.182;2023-03-23T16:03:40;11.60;;;3.15;;
41903;SDS011;27586;51.124;4.182;2023-03-23T16:06:26;11.63;;;3.00;;
41903;SDS011;27586;51.124;4.182;2023-03-23T16:08:54;8.90;;;3.22;;
41903;SDS011;27586;51.124;4.182;2023-03-23T16:11:21;8.90;;;3.63;;
41903;SDS011;27586;51.124;4.182;2023-03-23T16:13:48;7.72;;;3.08;;
41903;SDS011;27586;51.124;4.182;2023-03-23T16:16:15;11.70;;;3.45;;
41903;SDS011;27586;51.124;4.182;2023-03-23T16:19:01;7.53;;;2.90;;
41903;SDS011;27586;51.124;4.182;2023-03-23T16:21:28;11.02;;;3.50;;
41903;SDS011;27586;51.124;4.182;2023-03-23T16:23:54;8.20;;;3.10;;
41903;SDS011;27586;51.124;4.182;2023-03-23T16:26:20;10.48;;;3.95;;
41903;SDS011;27586;51.124;4.182;2023-03-23T16:28:46;8.15;;;3.58;;
41903;SDS011;27586;51.124;4.182;2023-03-23T16:31:11;8.15;;;2.90;;
41903;SDS011;27586;51.124;4.182;2023-03-23T16:33:40;12.38;;;3.58;;
41903;SDS011;27586;51.124;4.182;2023-03-23T16:36:06;9.40;;;3.00;;
41903;SDS011;27586;51.124;4.182;2023-03-23T16:38:34;9.05;;;3.05;;
41903;SDS011;27586;51.124;4.182;2023-03-23T16:40:59;12.30;;;3.40;;
41903;SDS011;27586;51.124;4.182;2023-03-23T16:43:25;10.15;;;3.15;;
41903;SDS011;27586;51.124;4.182;2023-03-23T16:45:51;6.60;;;2.80;;
41903;SDS011;27586;51.124;4.182;2023-03-23T16:48:20;12.88;;;3.60;;
41903;SDS011;27586;51.124;4.182;2023-03-23T16:50:45;8.32;;;3.05;;
41903;SDS011;27586;51.124;4.182;2023-03-23T16:53:11;8.23;;;3.00;;
41903;SDS011;27586;51.124;4.182;2023-03-23T16:55:37;8.23;;;2.53;;
41903;SDS011;27586;51.124;4.182;2023-03-23T16:58:04;8.45;;;3.00;;
41903;SDS011;27586;51.124;4.182;2023-03-23T17:00:31;6.50;;;2.60;;
41903;SDS011;27586;51.124;4.182;2023-03-23T17:02:57;5.55;;;2.70;;
41903;SDS011;27586;51.124;4.182;2023-03-23T17:05:26;5.65;;;2.20;;